Time;durP1;ratioP1;P1;durP2;ratioP2;P2;SDS_P1;SDS_P2;PMS_P1;PMS_P2;Temp;Humidity;BMP_temperature;BMP_pressure;BME280_temperature;BME280_humidity;BME280_pressure;Samples;Min_cycle;Max_cycle;Signal;HPM_P1;HPM_P2
2020/12/17 00:00:21;;;;;;;44.15;26.52;;;7.10;72.30;;;;;;5112084;28;20024;-52
2020/12/17 00:02:47;;;;;;;46.58;25.98;;;7.20;72.00;;;;;;5124270;27;20027;-56
2020/12/17 00:05:13;;;;;;;47.83;25.67;;;7.20;72.00;;;;;;5130450;27;20023;-57
2020/12/17 00:07:39;;;;;;;38.85;23.85;;;7.20;72.00;;;;;;5113468;28;20361;-56
2020/12/17 00:10:07;;;;;;;41.42;24.42;;;7.20;71.30;;;;;;5111358;28;20053;-60
2020/12/17 00:12:41;;;;;;;44.25;25.35;;;7.10;71.60;;;;;;5112230;28;20111;-56
2020/12/17 00:15:09;;;;;;;44.25;27.02;;;7.10;72.00;;;;;;5118738;28;20091;-54
2020/12/17 00:17:50;;;;;;;42.78;25.08;;;7.10;71.90;;;;;;5132828;28;20052;-54
2020/12/17 00:20:20;;;;;;;44.35;25.33;;;7.00;72.30;;;;;;5132649;28;20027;-56
2020/12/17 00:22:47;;;;;;;47.47;26.60;;;7.00;72.50;;;;;;5114595;28;20417;-56
2020/12/17 00:25:15;;;;;;;44.13;24.45;;;7.00;73.00;;;;;;5125963;28;20107;-57
2020/12/17 00:27:42;;;;;;;44.15;22.88;;;7.00;72.60;;;;;;5112194;28;20027;-58
2020/12/17 00:30:09;;;;;;;42.80;23.20;;;7.00;72.20;;;;;;5125579;28;20046;-60
2020/12/17 00:32:36;;;;;;;38.28;22.83;;;6.90;72.10;;;;;;5131401;28;20031;-57
2020/12/17 00:35:02;;;;;;;37.30;22.92;;;6.90;72.20;;;;;;5131800;28;20479;-57
2020/12/17 00:37:29;;;;;;;41.40;22.50;;;6.90;71.90;;;;;;5132171;28;20488;-58
2020/12/17 00:39:55;;;;;;;42.40;22.83;;;6.80;71.70;;;;;;5132008;28;20079;-56
2020/12/17 00:42:21;;;;;;;36.33;20.92;;;6.70;72.00;;;;;;5118390;28;20024;-57
2020/12/17 00:44:46;;;;;;;37.60;21.73;;;6.60;71.90;;;;;;5112042;28;20019;-56
2020/12/17 00:47:12;;;;;;;35.35;20.40;;;6.60;72.00;;;;;;5111495;28;20034;-55
2020/12/17 00:49:37;;;;;;;37.92;21.90;;;6.60;71.80;;;;;;5093710;28;20057;-57
2020/12/17 00:52:03;;;;;;;34.75;20.95;;;6.60;71.90;;;;;;5113366;28;20130;-58
2020/12/17 00:54:29;;;;;;;34.03;20.08;;;6.50;71.90;;;;;;5112039;28;20463;-58
2020/12/17 00:56:54;;;;;;;32.58;19.48;;;6.50;71.90;;;;;;5112219;28;20066;-57
2020/12/17 00:59:21;;;;;;;32.88;19.05;;;6.50;71.30;;;;;;5118043;27;20062;-57
2020/12/17 01:01:46;;;;;;;34.17;20.63;;;6.40;71.40;;;;;;5115997;28;20027;-56
2020/12/17 01:04:12;;;;;;;33.95;19.40;;;6.50;71.70;;;;;;5119139;27;20103;-54
2020/12/17 01:06:38;;;;;;;34.38;20.42;;;6.50;71.60;;;;;;5133823;27;20027;-53
2020/12/17 01:09:03;;;;;;;38.97;22.38;;;6.50;71.30;;;;;;5135422;27;20128;-54
2020/12/17 01:11:31;;;;;;;35.13;20.25;;;6.50;71.60;;;;;;5135198;27;20467;-51
2020/12/17 01:13:57;;;;;;;33.97;21.05;;;6.60;71.30;;;;;;5135459;27;20062;-58
2020/12/17 01:16:23;;;;;;;33.03;19.35;;;6.60;71.00;;;;;;5127189;27;20097;-57
2020/12/17 01:18:49;;;;;;;36.53;20.88;;;6.70;70.40;;;;;;5126656;27;20106;-57
2020/12/17 01:21:34;;;;;;;35.97;20.02;;;6.70;70.40;;;;;;5135271;27;20034;-57
2020/12/17 01:24:00;;;;;;;31.60;18.05;;;6.70;70.20;;;;;;5134252;27;20034;-57
2020/12/17 01:26:25;;;;;;;31.45;18.60;;;6.70;69.80;;;;;;5135533;27;20035;-55
2020/12/17 01:28:51;;;;;;;29.85;17.83;;;6.70;69.80;;;;;;5135168;27;20115;-54
2020/12/17 01:31:16;;;;;;;34.15;19.70;;;6.60;69.90;;;;;;5134033;27;20468;-56
2020/12/17 01:33:42;;;;;;;31.58;19.73;;;6.60;70.30;;;;;;5116983;27;20106;-55
2020/12/17 01:36:10;;;;;;;37.22;19.98;;;6.60;70.40;;;;;;5135053;27;20031;-55
2020/12/17 01:38:40;;;;;;;31.58;20.00;;;6.60;70.30;;;;;;5117234;27;20020;-56
2020/12/17 01:41:08;;;;;;;31.40;19.00;;;6.60;70.40;;;;;;5134694;27;20043;-53
2020/12/17 01:43:42;;;;;;;30.75;18.35;;;6.70;70.00;;;;;;5135339;27;20060;-55
2020/12/17 01:46:09;;;;;;;34.08;19.13;;;6.70;69.40;;;;;;5124995;27;20036;-54
2020/12/17 01:48:35;;;;;;;33.28;19.38;;;6.70;69.80;;;;;;5114549;28;20483;-56
2020/12/17 01:51:02;;;;;;;32.83;18.75;;;6.60;69.70;;;;;;5114128;28;20024;-53
2020/12/17 01:53:28;;;;;;;32.20;19.35;;;6.60;69.70;;;;;;5114788;28;20118;-52
2020/12/17 01:55:59;;;;;;;37.63;22.08;;;6.60;69.70;;;;;;5132841;27;20229;-55
2020/12/17 01:58:27;;;;;;;32.63;20.35;;;6.60;69.80;;;;;;5135237;27;20016;-56
2020/12/17 02:00:54;;;;;;;30.02;18.23;;;6.60;69.90;;;;;;5121797;27;20040;-59
2020/12/17 02:03:21;;;;;;;36.65;22.50;;;6.70;69.50;;;;;;5101433;27;20028;-61
2020/12/17 02:05:49;;;;;;;29.90;18.65;;;6.60;69.40;;;;;;5135483;27;20026;-58
2020/12/17 02:08:17;;;;;;;37.00;21.30;;;6.70;69.30;;;;;;5134320;27;20417;-59
2020/12/17 02:10:42;;;;;;;28.02;17.80;;;6.70;69.00;;;;;;5133684;27;20058;-55
2020/12/17 02:13:08;;;;;;;27.15;16.45;;;6.70;69.00;;;;;;5113615;28;20027;-57
2020/12/17 02:15:34;;;;;;;26.70;16.33;;;6.70;68.80;;;;;;5096121;28;20110;-59
2020/12/17 02:17:59;;;;;;;29.00;18.08;;;6.70;68.80;;;;;;5113986;28;20062;-58
2020/12/17 02:20:25;;;;;;;29.65;18.50;;;6.70;69.00;;;;;;5114390;28;20024;-57
2020/12/17 02:22:51;;;;;;;32.63;18.85;;;6.70;69.10;;;;;;5114097;28;20031;-58
2020/12/17 02:25:17;;;;;;;25.80;16.80;;;6.70;69.20;;;;;;5116590;27;20455;-57
2020/12/17 02:27:45;;;;;;;28.95;17.98;;;6.70;69.00;;;;;;5134537;27;20027;-59
2020/12/17 02:30:11;;;;;;;33.20;19.60;;;6.60;69.30;;;;;;5115017;27;20031;-60
2020/12/17 02:32:38;;;;;;;40.05;23.73;;;6.60;69.80;;;;;;5134231;27;20058;-60
2020/12/17 02:35:05;;;;;;;30.52;17.50;;;6.60;69.80;;;;;;5131749;27;20032;-58
2020/12/17 02:37:50;;;;;;;31.75;17.83;;;6.60;69.60;;;;;;5132377;27;20015;-58
2020/12/17 02:40:15;;;;;;;30.20;18.20;;;6.70;69.60;;;;;;5132555;27;20035;-60
2020/12/17 02:43:00;;;;;;;30.25;17.77;;;6.70;69.20;;;;;;5134031;27;20102;-56
2020/12/17 02:45:26;;;;;;;41.78;24.75;;;6.70;69.00;;;;;;5134059;27;20490;-59
2020/12/17 02:47:51;;;;;;;33.33;20.67;;;6.80;69.10;;;;;;5134660;27;20019;-58
2020/12/17 02:50:18;;;;;;;39.97;23.15;;;6.80;69.00;;;;;;5113320;27;20210;-58
2020/12/17 02:52:44;;;;;;;33.75;19.98;;;6.80;68.90;;;;;;5131167;27;20055;-57
2020/12/17 02:55:10;;;;;;;31.23;18.85;;;6.80;68.60;;;;;;5113084;28;20027;-57
2020/12/17 02:57:36;;;;;;;29.50;17.05;;;6.80;68.70;;;;;;5096727;28;20074;-58
2020/12/17 03:00:05;;;;;;;28.60;17.33;;;6.90;68.50;;;;;;5102840;27;20069;-57
2020/12/17 03:02:31;;;;;;;24.48;16.33;;;6.90;68.60;;;;;;5115287;27;20019;-59
2020/12/17 03:04:56;;;;;;;31.95;19.65;;;6.80;68.30;;;;;;5133705;27;20448;-57
2020/12/17 03:07:22;;;;;;;47.03;26.73;;;6.90;68.60;;;;;;5125687;27;20032;-58
2020/12/17 03:09:48;;;;;;;30.85;19.17;;;6.90;68.30;;;;;;5113118;28;20110;-57
2020/12/17 03:12:13;;;;;;;30.33;19.75;;;6.80;68.20;;;;;;5090839;28;20052;-57
2020/12/17 03:14:39;;;;;;;37.10;22.42;;;6.80;68.50;;;;;;5093184;28;20028;-58
2020/12/17 03:17:04;;;;;;;53.78;29.60;;;6.90;68.60;;;;;;5074501;28;20071;-58
2020/12/17 03:19:30;;;;;;;38.80;22.13;;;7.00;68.50;;;;;;5092520;28;20024;-58
2020/12/17 03:21:55;;;;;;;40.22;22.58;;;7.00;68.40;;;;;;5109933;28;20095;-56
2020/12/17 03:24:21;;;;;;;31.85;19.95;;;7.00;68.00;;;;;;5111220;28;20059;-56
2020/12/17 03:26:47;;;;;;;31.70;19.85;;;6.90;68.00;;;;;;5112732;28;20024;-57
2020/12/17 03:29:12;;;;;;;29.77;18.40;;;6.90;68.20;;;;;;5111140;28;20030;-57
2020/12/17 03:31:38;;;;;;;28.83;16.08;;;6.90;68.40;;;;;;5104148;28;20022;-58
2020/12/17 03:34:03;;;;;;;30.35;17.42;;;6.90;68.30;;;;;;5111503;28;20085;-58
2020/12/17 03:36:29;;;;;;;32.53;17.83;;;6.80;68.30;;;;;;5113107;28;20483;-59
2020/12/17 03:38:55;;;;;;;35.45;20.48;;;6.80;68.50;;;;;;5102979;28;20095;-58
2020/12/17 03:41:20;;;;;;;38.72;21.85;;;6.90;68.10;;;;;;5090369;28;20354;-58
2020/12/17 03:43:46;;;;;;;28.90;18.30;;;6.90;68.10;;;;;;5092401;28;20032;-54
2020/12/17 03:46:11;;;;;;;30.33;18.83;;;6.80;68.00;;;;;;5091744;28;20020;-57
2020/12/17 03:48:37;;;;;;;35.80;20.33;;;6.80;68.50;;;;;;5092591;28;20376;-57
2020/12/17 03:51:03;;;;;;;36.38;21.75;;;6.70;68.80;;;;;;5091494;28;20031;-59
2020/12/17 03:53:28;;;;;;;33.92;20.40;;;6.70;68.60;;;;;;5092239;28;20118;-57
2020/12/17 03:55:54;;;;;;;30.65;19.20;;;6.70;68.70;;;;;;5092356;28;20479;-58
2020/12/17 03:58:19;;;;;;;32.17;19.75;;;6.70;68.90;;;;;;5091851;28;20058;-58
2020/12/17 04:00:45;;;;;;;30.70;18.70;;;6.70;68.90;;;;;;5090958;28;20103;-57
2020/12/17 04:03:11;;;;;;;29.67;18.55;;;6.70;69.10;;;;;;5104599;28;20031;-58
2020/12/17 04:05:36;;;;;;;29.77;17.90;;;6.70;68.80;;;;;;5112582;28;20027;-57
2020/12/17 04:08:02;;;;;;;30.63;18.70;;;6.70;68.60;;;;;;5111183;28;20028;-57
2020/12/17 04:10:28;;;;;;;32.63;18.75;;;6.70;68.70;;;;;;5108862;28;20480;-58
2020/12/17 04:12:54;;;;;;;31.98;18.67;;;6.70;69.00;;;;;;5112672;28;20054;-56
2020/12/17 04:15:19;;;;;;;26.92;16.67;;;6.70;68.80;;;;;;5111771;28;20063;-57
2020/12/17 04:17:45;;;;;;;31.02;18.55;;;6.70;68.50;;;;;;5094050;28;20058;-57
2020/12/17 04:20:11;;;;;;;31.73;20.50;;;6.70;68.60;;;;;;5093460;28;20036;-57
2020/12/17 04:22:36;;;;;;;31.42;18.77;;;6.70;68.80;;;;;;5126424;28;20055;-59
2020/12/17 04:25:02;;;;;;;31.70;18.70;;;6.70;68.70;;;;;;5131873;28;20015;-58
2020/12/17 04:27:28;;;;;;;27.63;16.83;;;6.70;68.50;;;;;;5132067;28;20042;-58
2020/12/17 04:29:53;;;;;;;27.35;16.90;;;6.70;68.40;;;;;;5131911;28;20031;-60
2020/12/17 04:32:19;;;;;;;24.83;14.60;;;6.60;68.60;;;;;;5102846;27;20031;-56
2020/12/17 04:34:44;;;;;;;26.00;15.63;;;6.60;68.60;;;;;;5134921;27;20043;-59
2020/12/17 04:37:10;;;;;;;25.52;15.65;;;6.60;68.50;;;;;;5136272;27;20083;-57
2020/12/17 04:39:36;;;;;;;24.92;13.88;;;6.50;68.60;;;;;;5118432;27;20165;-59
2020/12/17 04:42:02;;;;;;;22.50;13.85;;;6.50;68.60;;;;;;5107273;28;20031;-58
2020/12/17 04:44:28;;;;;;;23.77;14.73;;;6.50;68.60;;;;;;5097270;28;20133;-58
2020/12/17 04:46:59;;;;;;;29.67;16.70;;;6.40;69.10;;;;;;5116176;28;20029;-58
2020/12/17 04:49:39;;;;;;;30.20;15.75;;;6.50;69.20;;;;;;5122123;27;20523;-59
2020/12/17 04:52:06;;;;;;;24.00;15.18;;;6.60;68.80;;;;;;5127630;27;20049;-55
2020/12/17 04:54:32;;;;;;;27.40;16.05;;;6.50;68.60;;;;;;5115636;28;20027;-56
2020/12/17 04:57:07;;;;;;;26.55;16.02;;;6.60;68.90;;;;;;5115755;28;20034;-57
2020/12/17 04:59:41;;;;;;;28.90;16.42;;;6.60;68.60;;;;;;5115879;28;20027;-58
2020/12/17 05:02:07;;;;;;;29.77;16.65;;;6.50;68.70;;;;;;5117237;27;20038;-65
2020/12/17 05:04:38;;;;;;;51.88;25.58;;;6.50;69.20;;;;;;5114497;28;20066;-55
2020/12/17 05:07:06;;;;;;;30.33;17.63;;;6.50;69.50;;;;;;5116042;28;20035;-57
2020/12/17 05:09:33;;;;;;;41.70;23.30;;;6.50;69.70;;;;;;5115576;28;20422;-59
2020/12/17 05:11:58;;;;;;;59.83;29.27;;;6.40;69.90;;;;;;5115511;28;20472;-59
2020/12/17 05:14:24;;;;;;;29.42;17.48;;;6.40;70.00;;;;;;5096510;28;20031;-56
2020/12/17 05:16:50;;;;;;;27.85;17.35;;;6.40;70.10;;;;;;5121577;27;20088;-58
2020/12/17 05:19:16;;;;;;;28.63;16.40;;;6.40;70.20;;;;;;5135434;27;20463;-58
2020/12/17 05:21:42;;;;;;;33.17;19.38;;;6.40;70.00;;;;;;5127624;27;20019;-57
2020/12/17 05:24:08;;;;;;;42.83;21.92;;;6.50;69.60;;;;;;5131831;27;20038;-65
2020/12/17 05:26:37;;;;;;;35.03;19.73;;;6.60;69.70;;;;;;5115807;28;20036;-60
2020/12/17 05:29:03;;;;;;;34.75;18.52;;;6.60;69.70;;;;;;5121817;27;20031;-58
2020/12/17 05:31:32;;;;;;;31.75;18.17;;;6.50;70.00;;;;;;5134177;27;20023;-58
2020/12/17 05:34:02;;;;;;;50.30;23.67;;;6.40;70.30;;;;;;5117836;27;20039;-58
2020/12/17 05:36:30;;;;;;;57.70;29.80;;;6.40;70.40;;;;;;5121659;27;20444;-57
2020/12/17 05:39:06;;;;;;;38.63;20.48;;;6.40;70.40;;;;;;5117257;27;20059;-55
2020/12/17 05:41:34;;;;;;;48.67;23.77;;;6.30;70.60;;;;;;5120658;27;20225;-58
2020/12/17 05:44:12;;;;;;;30.17;16.98;;;6.30;70.70;;;;;;5105707;27;20023;-58
2020/12/17 05:46:39;;;;;;;31.33;16.70;;;6.30;70.70;;;;;;5124608;27;20034;-57
2020/12/17 05:49:17;;;;;;;30.17;15.27;;;6.30;70.80;;;;;;5123657;27;20024;-59
2020/12/17 05:51:46;;;;;;;28.38;15.90;;;6.30;70.80;;;;;;5106047;27;20059;-57
2020/12/17 05:54:25;;;;;;;30.55;17.60;;;6.30;70.90;;;;;;5106277;27;20023;-57
2020/12/17 05:57:06;;;;;;;45.83;23.55;;;6.30;71.10;;;;;;5121317;27;20054;-57
2020/12/17 05:59:32;;;;;;;31.33;18.92;;;6.30;70.90;;;;;;5085197;22;20056;-61
2020/12/17 06:02:00;;;;;;;36.17;20.10;;;6.30;70.90;;;;;;5067452;28;20089;-62
2020/12/17 06:04:26;;;;;;;72.65;34.45;;;6.30;70.80;;;;;;5064174;28;20048;-61
2020/12/17 06:07:03;;;;;;;38.45;19.70;;;6.40;70.40;;;;;;5063800;28;20474;-62
2020/12/17 06:09:35;;;;;;;36.65;20.52;;;6.50;70.20;;;;;;5064701;28;20484;-61
2020/12/17 06:12:01;;;;;;;37.28;20.73;;;6.50;70.00;;;;;;5063759;28;20496;-61
2020/12/17 06:14:29;;;;;;;33.60;18.20;;;6.50;70.20;;;;;;5044869;28;20040;-61
2020/12/17 06:16:58;;;;;;;33.63;18.15;;;6.50;70.30;;;;;;5067231;28;20457;-61
2020/12/17 06:19:24;;;;;;;48.55;22.95;;;6.50;70.20;;;;;;5062263;28;20035;-61
2020/12/17 06:21:50;;;;;;;41.50;21.35;;;6.60;69.90;;;;;;5061900;28;20040;-62
2020/12/17 06:24:20;;;;;;;29.73;16.58;;;6.50;70.00;;;;;;5061687;28;20024;-63
2020/12/17 06:26:55;;;;;;;39.08;19.42;;;6.50;70.30;;;;;;5071419;28;20032;-61
2020/12/17 06:29:22;;;;;;;59.35;28.88;;;6.50;70.40;;;;;;5072744;28;20036;-61
2020/12/17 06:31:58;;;;;;;65.88;32.80;;;6.50;70.40;;;;;;5061469;28;20055;-61
2020/12/17 06:34:37;;;;;;;49.83;26.42;;;6.40;70.70;;;;;;5063154;28;20033;-61
2020/12/17 06:37:04;;;;;;;52.10;26.30;;;6.40;70.90;;;;;;5059271;28;20052;-61
2020/12/17 06:39:30;;;;;;;73.90;34.88;;;6.40;71.00;;;;;;5061319;28;20052;-62
2020/12/17 06:41:56;;;;;;;62.90;31.17;;;6.40;71.10;;;;;;5065442;28;20025;-62
2020/12/17 06:44:28;;;;;;;38.20;19.38;;;6.50;70.90;;;;;;5060671;28;20040;-62
2020/12/17 06:47:01;;;;;;;53.13;26.75;;;6.50;70.60;;;;;;5068515;28;20037;-62
2020/12/17 06:49:29;;;;;;;31.35;17.27;;;6.50;70.40;;;;;;5072010;28;20060;-62
2020/12/17 06:52:09;;;;;;;32.67;18.30;;;6.40;70.40;;;;;;5061908;28;20037;-63
2020/12/17 06:54:40;;;;;;;65.90;31.88;;;6.40;70.60;;;;;;5061773;28;20366;-65
2020/12/17 06:57:07;;;;;;;28.50;16.67;;;6.50;69.90;;;;;;5070231;28;20048;-65
2020/12/17 06:59:33;;;;;;;27.25;15.20;;;6.60;69.80;;;;;;5069688;28;20076;-64
2020/12/17 07:01:59;;;;;;;25.20;15.32;;;6.50;69.90;;;;;;5069252;28;20029;-63
2020/12/17 07:04:36;;;;;;;29.15;16.35;;;6.50;70.20;;;;;;5070316;28;20464;-64
2020/12/17 07:07:12;;;;;;;60.97;28.45;;;6.70;70.00;;;;;;5053655;28;20482;-63
2020/12/17 07:09:39;;;;;;;32.85;16.00;;;6.80;69.40;;;;;;5072151;28;20393;-63
2020/12/17 07:12:05;;;;;;;24.58;14.13;;;6.70;69.30;;;;;;5059254;28;20036;-64
2020/12/17 07:17:22;;;;;;;26.05;15.38;;;6.60;69.40;;;;;;5067865;28;20067;-63
2020/12/17 07:19:49;;;;;;;30.67;16.17;;;6.60;69.80;;;;;;5072285;28;20028;-64
2020/12/17 07:22:16;;;;;;;25.77;14.90;;;6.70;69.80;;;;;;5055269;28;20045;-65
2020/12/17 07:24:52;;;;;;;24.48;14.50;;;6.70;69.40;;;;;;5051236;28;20137;-64
2020/12/17 07:27:29;;;;;;;32.13;16.13;;;6.70;69.50;;;;;;5051416;28;20478;-64
2020/12/17 07:30:03;;;;;;;30.23;16.52;;;6.70;70.30;;;;;;5063348;28;20121;-64
2020/12/17 07:32:32;;;;;;;53.83;26.33;;;6.70;69.50;;;;;;5065534;28;20033;-63
2020/12/17 07:35:07;;;;;;;29.92;16.55;;;6.70;69.40;;;;;;5071390;28;20017;-63
2020/12/17 07:37:36;;;;;;;32.40;18.17;;;6.60;69.50;;;;;;5062392;28;20028;-63
2020/12/17 07:40:25;;;;;;;28.75;16.55;;;6.50;69.90;;;;;;5052845;28;20036;-62
2020/12/17 07:43:03;;;;;;;38.22;20.80;;;6.50;70.10;;;;;;5056523;28;20044;-62
2020/12/17 07:45:50;;;;;;;37.58;18.73;;;6.50;70.40;;;;;;5050020;28;20036;-63
2020/12/17 07:48:31;;;;;;;26.20;15.25;;;6.50;70.20;;;;;;5066551;28;20033;-70
2020/12/17 07:50:57;;;;;;;37.17;18.40;;;6.60;70.20;;;;;;5055267;28;20116;-64
2020/12/17 07:53:23;;;;;;;26.58;15.57;;;6.60;69.90;;;;;;5064609;28;20032;-65
2020/12/17 07:55:51;;;;;;;30.45;16.52;;;6.60;69.70;;;;;;5063524;28;20116;-65
2020/12/17 07:58:17;;;;;;;52.88;26.70;;;6.60;69.90;;;;;;5056613;28;20044;-68
2020/12/17 08:00:43;;;;;;;39.08;20.83;;;6.70;69.80;;;;;;5070666;28;20028;-64
2020/12/17 08:03:09;;;;;;;45.50;23.65;;;6.70;69.60;;;;;;5071566;28;20036;-64
2020/12/17 08:05:35;;;;;;;34.35;18.80;;;6.70;69.70;;;;;;5058897;28;20152;-64
2020/12/17 08:08:01;;;;;;;32.75;17.90;;;6.60;69.60;;;;;;5051413;28;20061;-63
2020/12/17 08:10:27;;;;;;;25.23;14.40;;;6.50;70.00;;;;;;5053585;28;20107;-63
2020/12/17 08:12:53;;;;;;;25.33;13.73;;;6.50;69.90;;;;;;5059025;28;20530;-62
2020/12/17 08:15:20;;;;;;;32.30;18.45;;;6.60;69.50;;;;;;5057252;28;20031;-67
2020/12/17 08:17:48;;;;;;;31.33;18.38;;;6.80;69.30;;;;;;5060649;28;20469;-62
2020/12/17 08:20:18;;;;;;;39.00;21.85;;;6.90;68.80;;;;;;5062075;28;20029;-62
2020/12/17 08:22:47;;;;;;;32.05;18.10;;;7.00;68.00;;;;;;5059034;28;20021;-63
2020/12/17 08:25:32;;;;;;;35.33;16.90;;;7.00;68.00;;;;;;5053351;28;20025;-63
2020/12/17 08:27:58;;;;;;;30.25;19.73;;;7.00;67.90;;;;;;5050101;28;20068;-63
2020/12/17 08:30:23;;;;;;;29.67;17.23;;;7.10;67.80;;;;;;5051087;28;20057;-64
2020/12/17 08:32:54;;;;;;;31.42;17.58;;;7.00;68.00;;;;;;5059191;28;20410;-64
2020/12/17 08:35:25;;;;;;;27.33;16.45;;;7.00;68.30;;;;;;5065544;28;20083;-64
2020/12/17 08:37:53;;;;;;;25.05;14.57;;;6.90;68.50;;;;;;5057442;28;20033;-64
2020/12/17 08:40:23;;;;;;;23.80;14.63;;;6.90;68.40;;;;;;5068791;28;20021;-68
2020/12/17 08:42:53;;;;;;;27.33;16.67;;;6.80;68.30;;;;;;5069526;28;20020;-64
2020/12/17 08:45:24;;;;;;;33.92;18.02;;;6.80;68.60;;;;;;5069301;28;20522;-66
2020/12/17 08:47:50;;;;;;;38.70;20.20;;;6.80;69.00;;;;;;5059627;28;20028;-64
2020/12/17 08:50:17;;;;;;;44.55;24.67;;;6.80;69.10;;;;;;5070860;28;20093;-64
2020/12/17 08:52:43;;;;;;;31.35;17.58;;;6.90;69.10;;;;;;5069199;28;20048;-64
2020/12/17 08:55:10;;;;;;;29.60;16.92;;;6.90;68.70;;;;;;5070942;28;20032;-64
2020/12/17 08:57:37;;;;;;;27.60;15.68;;;6.90;68.60;;;;;;5050466;28;20060;-63
2020/12/17 09:00:12;;;;;;;27.70;15.70;;;6.80;68.60;;;;;;5064775;28;20044;-65
2020/12/17 09:02:40;;;;;;;23.45;15.23;;;6.80;69.20;;;;;;5065461;28;20037;-63
2020/12/17 09:05:05;;;;;;;26.45;16.35;;;6.80;69.10;;;;;;5067613;28;20109;-64
2020/12/17 09:07:31;;;;;;;30.35;16.25;;;6.80;68.90;;;;;;5064803;28;20040;-64
2020/12/17 09:10:33;;;;;;;28.17;17.45;;;6.90;68.70;;;;;;5063358;28;20029;-64
2020/12/17 09:12:58;;;;;;;36.35;18.58;;;7.10;68.20;;;;;;5059101;28;20135;-63
2020/12/17 09:15:28;;;;;;;45.38;23.08;;;7.20;67.70;;;;;;5055582;28;20124;-64
2020/12/17 09:18:08;;;;;;;25.27;15.30;;;7.20;67.30;;;;;;5051933;28;20033;-63
2020/12/17 09:20:33;;;;;;;28.65;16.88;;;7.20;67.50;;;;;;5046214;28;20595;-63
2020/12/17 09:23:07;;;;;;;26.88;16.08;;;7.10;68.00;;;;;;5067779;28;20100;-65
2020/12/17 09:25:32;;;;;;;33.65;20.13;;;7.10;67.80;;;;;;5071061;28;20142;-64
2020/12/17 09:27:58;;;;;;;28.90;16.70;;;7.00;68.00;;;;;;5063752;28;20111;-63
2020/12/17 09:30:31;;;;;;;28.73;16.92;;;7.00;68.00;;;;;;5068405;28;20040;-63
2020/12/17 09:33:02;;;;;;;26.42;16.15;;;7.00;68.00;;;;;;5058576;28;20208;-63
2020/12/17 09:35:36;;;;;;;28.35;16.08;;;7.00;67.80;;;;;;5053564;28;20389;-62
2020/12/17 09:38:03;;;;;;;25.67;15.30;;;7.00;67.80;;;;;;5071679;28;20032;-63
2020/12/17 09:40:29;;;;;;;27.45;16.58;;;7.00;68.10;;;;;;5073060;28;20162;-63
2020/12/17 09:43:06;;;;;;;23.80;15.35;;;6.90;68.50;;;;;;5058560;28;20036;-63
2020/12/17 09:45:36;;;;;;;27.77;16.33;;;6.90;68.70;;;;;;5055173;28;20025;-63
2020/12/17 09:48:30;;;;;;;28.13;17.25;;;6.80;69.10;;;;;;5059260;28;20020;-64
2020/12/17 09:51:04;;;;;;;27.13;15.48;;;6.70;69.40;;;;;;5057130;28;20120;-65
2020/12/17 09:53:32;;;;;;;28.60;17.10;;;6.70;69.70;;;;;;5054651;28;20033;-64
2020/12/17 09:55:58;;;;;;;28.00;16.50;;;6.70;69.50;;;;;;5053903;28;20470;-66
2020/12/17 09:58:24;;;;;;;28.13;17.02;;;6.80;69.20;;;;;;5071644;28;20145;-66
2020/12/17 10:00:50;;;;;;;26.38;16.00;;;6.90;69.10;;;;;;5073922;28;20037;-64
2020/12/17 10:03:15;;;;;;;26.25;15.77;;;6.90;68.80;;;;;;5056723;28;20032;-63
2020/12/17 10:05:43;;;;;;;28.02;16.20;;;6.80;68.60;;;;;;5058568;28;20098;-64
2020/12/17 10:08:09;;;;;;;27.73;16.70;;;6.90;68.40;;;;;;5072933;28;20029;-64
2020/12/17 10:10:35;;;;;;;25.95;16.25;;;6.90;68.50;;;;;;5069880;28;20048;-64
2020/12/17 10:13:01;;;;;;;29.50;17.65;;;6.90;68.90;;;;;;5062253;28;20024;-63
2020/12/17 10:15:29;;;;;;;29.20;16.88;;;6.90;69.00;;;;;;5072698;28;20063;-63
2020/12/17 10:17:55;;;;;;;29.67;17.17;;;6.90;69.00;;;;;;5072251;28;20017;-63
2020/12/17 10:20:22;;;;;;;30.73;17.63;;;7.00;68.80;;;;;;5073350;28;20107;-64
2020/12/17 10:22:48;;;;;;;28.15;17.95;;;6.90;68.90;;;;;;5072176;28;20066;-64
2020/12/17 10:25:15;;;;;;;30.05;18.45;;;7.00;68.50;;;;;;5067000;28;20025;-64
2020/12/17 10:27:41;;;;;;;28.17;17.55;;;7.20;68.10;;;;;;5054209;28;20108;-65
2020/12/17 10:30:07;;;;;;;35.72;22.30;;;7.20;67.50;;;;;;5072294;28;20120;-63
2020/12/17 10:32:34;;;;;;;32.80;18.08;;;7.20;67.20;;;;;;5070593;28;20135;-65
2020/12/17 10:35:00;;;;;;;39.28;20.33;;;7.40;67.00;;;;;;5072432;28;20458;-64
2020/12/17 10:37:27;;;;;;;29.20;18.08;;;7.50;66.80;;;;;;5054417;28;20120;-71
2020/12/17 10:39:54;;;;;;;31.58;18.40;;;7.40;66.30;;;;;;5065744;28;20025;-64
2020/12/17 10:42:20;;;;;;;29.13;18.02;;;7.40;66.50;;;;;;5063885;28;20496;-64
2020/12/17 10:44:47;;;;;;;32.65;18.95;;;7.30;66.60;;;;;;5071086;28;20035;-63
2020/12/17 10:47:13;;;;;;;27.33;18.27;;;7.20;67.10;;;;;;5072512;28;20024;-65
2020/12/17 10:49:38;;;;;;;29.20;18.08;;;7.30;67.20;;;;;;5070000;28;20035;-62
2020/12/17 10:52:04;;;;;;;28.88;18.63;;;7.40;66.60;;;;;;5072397;28;20041;-64
2020/12/17 10:54:30;;;;;;;29.13;19.23;;;7.40;66.70;;;;;;5071028;28;20415;-63
2020/12/17 10:56:55;;;;;;;29.98;18.45;;;7.50;66.20;;;;;;5072114;28;20047;-63
2020/12/17 10:59:21;;;;;;;32.88;20.38;;;7.50;66.20;;;;;;5071690;28;20473;-64
2020/12/17 11:01:47;;;;;;;33.50;20.60;;;7.40;66.40;;;;;;5070570;28;20533;-64
2020/12/17 11:04:13;;;;;;;37.90;19.63;;;7.50;66.60;;;;;;5063952;28;20381;-64
2020/12/17 11:06:39;;;;;;;37.63;20.38;;;7.50;66.30;;;;;;5051849;28;20407;-63
2020/12/17 11:09:04;;;;;;;37.90;20.08;;;7.60;66.20;;;;;;5051347;28;20029;-64
2020/12/17 11:11:30;;;;;;;40.10;24.92;;;7.70;65.80;;;;;;5065329;28;20505;-64
2020/12/17 11:13:56;;;;;;;37.72;19.77;;;7.70;65.50;;;;;;5071708;28;20495;-63
2020/12/17 11:16:21;;;;;;;31.40;19.40;;;7.50;65.90;;;;;;5071885;28;20408;-64
2020/12/17 11:18:47;;;;;;;33.75;19.85;;;7.40;67.30;;;;;;5070586;28;20036;-67
2020/12/17 11:21:20;;;;;;;29.55;18.35;;;7.40;66.70;;;;;;5058847;28;20426;-64
2020/12/17 11:23:46;;;;;;;32.42;20.38;;;7.40;66.90;;;;;;5064115;28;20158;-63
2020/12/17 11:26:11;;;;;;;39.30;20.60;;;7.40;66.60;;;;;;5071767;28;20523;-65
2020/12/17 11:28:37;;;;;;;35.42;22.17;;;7.40;66.60;;;;;;5063068;28;20048;-63
2020/12/17 11:31:03;;;;;;;28.75;19.77;;;7.50;66.70;;;;;;5067751;28;20029;-63
2020/12/17 11:33:29;;;;;;;29.15;19.95;;;7.60;66.40;;;;;;5070828;28;20029;-67
2020/12/17 11:35:55;;;;;;;30.15;18.95;;;7.60;66.10;;;;;;5050881;28;20032;-63
2020/12/17 11:38:21;;;;;;;31.40;19.63;;;7.60;65.70;;;;;;5051795;28;20543;-63
2020/12/17 11:40:46;;;;;;;29.15;19.98;;;7.70;66.10;;;;;;5050112;28;20141;-63
2020/12/17 11:43:12;;;;;;;34.80;22.02;;;7.70;65.80;;;;;;5065724;28;20103;-63
2020/12/17 11:45:38;;;;;;;30.88;19.50;;;7.80;65.40;;;;;;5058871;28;20376;-63
2020/12/17 11:48:04;;;;;;;31.40;19.73;;;7.80;65.30;;;;;;5066076;28;20043;-63
2020/12/17 11:50:49;;;;;;;32.28;19.98;;;7.90;65.20;;;;;;5067345;28;20028;-68
2020/12/17 11:53:15;;;;;;;57.17;27.70;;;7.90;65.10;;;;;;5067689;28;20384;-62
2020/12/17 11:55:40;;;;;;;45.80;26.58;;;7.90;64.90;;;;;;5058387;28;20020;-63
2020/12/17 11:58:06;;;;;;;36.83;21.13;;;8.00;64.80;;;;;;5058951;28;20040;-64
2020/12/17 12:00:32;;;;;;;31.00;20.13;;;8.00;64.40;;;;;;5060836;28;20368;-63
2020/12/17 12:02:57;;;;;;;34.70;21.70;;;7.90;64.60;;;;;;5070946;28;20507;-62
2020/12/17 12:05:23;;;;;;;31.05;19.40;;;7.90;64.60;;;;;;5067941;28;20116;-63
2020/12/17 12:07:49;;;;;;;27.08;17.95;;;7.80;65.30;;;;;;5051079;28;20100;-63
2020/12/17 12:10:14;;;;;;;28.77;19.40;;;7.80;65.30;;;;;;5071230;28;20024;-62
2020/12/17 12:12:40;;;;;;;29.60;17.73;;;7.70;65.50;;;;;;5065871;28;20098;-63
2020/12/17 12:15:06;;;;;;;29.00;19.02;;;7.80;65.20;;;;;;5062081;28;20025;-63
2020/12/17 12:17:32;;;;;;;33.25;20.33;;;7.70;65.40;;;;;;5068388;28;20108;-67
2020/12/17 12:19:57;;;;;;;30.15;20.13;;;7.60;65.90;;;;;;5070491;28;20028;-62
2020/12/17 12:22:23;;;;;;;33.03;20.67;;;7.60;66.40;;;;;;5066176;28;20119;-64
2020/12/17 12:24:49;;;;;;;32.83;20.08;;;7.60;66.10;;;;;;5069755;28;20104;-62
2020/12/17 12:27:14;;;;;;;34.05;20.98;;;7.70;65.70;;;;;;5070994;28;20024;-63
2020/12/17 12:29:40;;;;;;;30.92;19.35;;;7.80;65.80;;;;;;5069373;28;20047;-62
2020/12/17 12:32:06;;;;;;;32.60;18.88;;;7.80;65.60;;;;;;5066050;28;20052;-62
2020/12/17 12:34:32;;;;;;;31.85;20.20;;;7.80;65.20;;;;;;5051401;28;20031;-63
2020/12/17 12:36:58;;;;;;;27.80;17.90;;;7.80;65.30;;;;;;5064777;28;20043;-65
2020/12/17 12:39:24;;;;;;;29.27;17.85;;;7.90;64.80;;;;;;5069369;28;20107;-63
2020/12/17 12:41:51;;;;;;;30.10;19.45;;;7.90;64.50;;;;;;5060550;28;20032;-63